createdAt,value
2023-01-29T00:00:33.189Z,100949.69
2023-01-29T00:03:35.697Z,100945.38
2023-01-29T00:06:36.998Z,100950.56
2023-01-29T00:09:38.599Z,100942.75
2023-01-29T00:12:40.068Z,100949.22
2023-01-29T00:15:41.483Z,100946.88
2023-01-29T00:18:43.760Z,100940.78
2023-01-29T00:21:45.687Z,100942.69
2023-01-29T00:24:47.099Z,100941.19
2023-01-29T00:27:48.562Z,100935.88
2023-01-29T00:30:50.027Z,100936.69
2023-01-29T00:33:51.875Z,100924.28
2023-01-29T00:37:04.931Z,100925.63
2023-01-29T00:40:07.002Z,100914.47
2023-01-29T00:43:27.106Z,100907.50
2023-01-29T00:46:28.610Z,100915.75
2023-01-29T00:49:38.144Z,100907.50
2023-01-29T00:52:43.120Z,100913.31
2023-01-29T00:55:44.953Z,100898.94
2023-01-29T00:58:46.348Z,100904.28
2023-01-29T01:02:06.508Z,100911.75
2023-01-29T01:05:19.221Z,100910.59
2023-01-29T01:08:39.349Z,100905.38
2023-01-29T01:11:40.794Z,100912.00
2023-01-29T01:14:43.175Z,100912.13
2023-01-29T01:17:44.593Z,100918.09
2023-01-29T01:20:51.431Z,100924.13
2023-01-29T01:23:53.599Z,100926.06
2023-01-29T01:26:55.066Z,100923.78
2023-01-29T01:29:56.575Z,100925.69
2023-01-29T01:32:58.063Z,100927.69
2023-01-29T01:36:02.080Z,100927.97
2023-01-29T01:39:33.644Z,100937.28
2023-01-29T01:42:35.028Z,100925.34
2023-01-29T01:45:38.016Z,100924.13
2023-01-29T01:48:40.137Z,100931.88
2023-01-29T01:51:47.919Z,100931.78
2023-01-29T01:54:51.467Z,100936.50
2023-01-29T01:57:59.324Z,100937.13
2023-01-29T02:01:01.330Z,100930.75
2023-01-29T02:04:25.873Z,100927.94
2023-01-29T02:07:45.974Z,100939.25
2023-01-29T02:10:48.764Z,100939.56
2023-01-29T02:13:53.527Z,100938.50
2023-01-29T02:17:01.359Z,100934.66
2023-01-29T02:20:17.639Z,100931.03
2023-01-29T02:23:31.528Z,100932.84
2023-01-29T02:27:13.986Z,100933.44
2023-01-29T02:30:44.909Z,100937.13
2023-01-29T02:33:52.438Z,100935.31
2023-01-29T02:37:11.923Z,100940.88
2023-01-29T02:40:31.588Z,100937.34
2023-01-29T02:43:55.243Z,100940.09
2023-01-29T02:47:12.541Z,100933.38
2023-01-29T02:50:34.366Z,100930.03
2023-01-29T02:53:41.239Z,100944.09
2023-01-29T02:56:56.859Z,100937.69
2023-01-29T03:00:04.325Z,100936.72
2023-01-29T03:03:16.019Z,100931.09
2023-01-29T03:06:26.186Z,100922.03
2023-01-29T03:09:41.729Z,100927.88
2023-01-29T03:12:46.820Z,100939.63
2023-01-29T03:16:01.354Z,100941.06
2023-01-29T03:19:20.297Z,100944.91
2023-01-29T03:22:23.585Z,100943.06
2023-01-29T03:25:46.230Z,100944.09
2023-01-29T03:29:07.474Z,100936.13
2023-01-29T03:32:11.873Z,100935.31
2023-01-29T03:35:20.927Z,100933.56
2023-01-29T03:38:22.740Z,100941.75
2023-01-29T03:41:38.328Z,100935.56
2023-01-29T03:44:50.573Z,100940.81
2023-01-29T03:48:03.669Z,100933.38
2023-01-29T03:51:11.912Z,100934.31
2023-01-29T03:54:39.275Z,100930.41
2023-01-29T03:57:47.382Z,100938.06
2023-01-29T04:01:02.730Z,100941.69
2023-01-29T04:04:27.580Z,100935.44
2023-01-29T04:07:33.411Z,100926.22
2023-01-29T04:10:41.361Z,100929.56
2023-01-29T04:13:43.658Z,100940.72
2023-01-29T04:16:51.454Z,100937.47
2023-01-29T04:20:11.249Z,100947.44
2023-01-29T04:23:23.545Z,100926.91
2023-01-29T04:26:28.375Z,100929.72
2023-01-29T04:29:45.723Z,100930.03
2023-01-29T04:32:59.755Z,100926.25
2023-01-29T04:36:16.275Z,100928.47
2023-01-29T04:39:27.206Z,100927.75
2023-01-29T04:42:34.018Z,100919.16
2023-01-29T04:45:54.152Z,100928.00
2023-01-29T04:49:05.232Z,100933.31
2023-01-29T04:52:20.224Z,100938.06
2023-01-29T04:55:32.315Z,100926.13
2023-01-29T04:58:44.473Z,100922.47
2023-01-29T05:01:47.505Z,100918.03
2023-01-29T05:04:50.001Z,100920.69
2023-01-29T05:07:52.746Z,100917.31
2023-01-29T05:10:57.056Z,100919.53
2023-01-29T05:14:02.169Z,100915.75
2023-01-29T05:17:09.599Z,100913.47
2023-01-29T05:20:12.027Z,100917.63
2023-01-29T05:23:22.189Z,100916.13
2023-01-29T05:26:42.906Z,100921.94
2023-01-29T05:29:46.771Z,100941.13
2023-01-29T05:32:48.342Z,100943.34
2023-01-29T05:35:50.521Z,100943.69
2023-01-29T05:38:52.058Z,100938.41
2023-01-29T05:41:53.501Z,100945.50
2023-01-29T05:44:55.003Z,100945.09
2023-01-29T05:47:57.867Z,100931.13
2023-01-29T05:51:03.898Z,100908.72
2023-01-29T05:54:05.516Z,100905.53
2023-01-29T05:57:06.892Z,100897.41
2023-01-29T06:00:09.249Z,100902.56
2023-01-29T06:03:13.695Z,100910.28
2023-01-29T06:06:15.473Z,100911.66
2023-01-29T06:09:16.885Z,100915.66
2023-01-29T06:12:18.304Z,100913.44
2023-01-29T06:15:19.770Z,100919.38
2023-01-29T06:18:21.235Z,100932.69
2023-01-29T06:21:22.614Z,100917.97
2023-01-29T06:24:24.083Z,100930.25
2023-01-29T06:27:25.654Z,100933.50
2023-01-29T06:30:28.339Z,100943.22
2023-01-29T06:33:29.769Z,100946.06
2023-01-29T06:36:31.205Z,100950.53
2023-01-29T06:39:32.617Z,100958.94
2023-01-29T06:42:37.180Z,100955.16
2023-01-29T06:45:38.683Z,100962.50
2023-01-29T06:48:40.111Z,100971.34
2023-01-29T06:51:41.590Z,100966.09
2023-01-29T06:54:43.027Z,100966.91
2023-01-29T06:57:44.452Z,100956.63
2023-01-29T07:00:46.080Z,100957.13
2023-01-29T07:03:51.282Z,100958.03
2023-01-29T07:06:52.669Z,100953.75
2023-01-29T07:09:54.086Z,100963.97
2023-01-29T07:12:55.574Z,100961.00
2023-01-29T07:16:01.891Z,100960.69
2023-01-29T07:19:03.516Z,100951.53
2023-01-29T07:22:05.673Z,100941.47
2023-01-29T07:25:07.926Z,100947.47
2023-01-29T07:28:09.437Z,100944.75
2023-01-29T07:31:13.216Z,100945.81
2023-01-29T07:34:14.733Z,100947.06
2023-01-29T07:37:16.125Z,100948.84
2023-01-29T07:40:17.873Z,100958.19
2023-01-29T07:43:19.494Z,100972.88
2023-01-29T07:46:20.911Z,100973.50
2023-01-29T07:49:22.298Z,100982.75
2023-01-29T07:52:23.729Z,100992.84
2023-01-29T07:55:25.663Z,100993.91
2023-01-29T07:58:27.082Z,100998.66
2023-01-29T08:01:28.817Z,101012.34
2023-01-29T08:04:30.268Z,101009.44
2023-01-29T08:07:31.740Z,101012.09
2023-01-29T08:10:33.662Z,101010.44
2023-01-29T08:13:35.163Z,101010.56
2023-01-29T08:16:36.693Z,101015.91
2023-01-29T08:19:38.156Z,101017.44
2023-01-29T08:22:39.563Z,101027.16
2023-01-29T08:25:41.390Z,101032.34
2023-01-29T08:28:42.817Z,101025.75
2023-01-29T08:31:44.245Z,101043.78
2023-01-29T08:34:45.724Z,101039.66
2023-01-29T08:38:01.264Z,101040.19
2023-01-29T08:41:02.839Z,101040.69
2023-01-29T08:44:04.700Z,101045.47
2023-01-29T08:47:06.096Z,101043.44
2023-01-29T08:50:08.167Z,101044.22
2023-01-29T08:53:10.159Z,101038.97
2023-01-29T08:56:11.663Z,101046.72
2023-01-29T08:59:13.227Z,101047.50
2023-01-29T09:02:14.685Z,101046.72
2023-01-29T09:05:16.530Z,101047.09
2023-01-29T09:08:18.076Z,101043.13
2023-01-29T09:11:19.535Z,101042.91
2023-01-29T09:14:21.083Z,101049.94
2023-01-29T09:17:22.598Z,101047.00
2023-01-29T09:20:24.043Z,101043.22
2023-01-29T09:23:25.534Z,101040.56
2023-01-29T09:26:27.012Z,101029.38
2023-01-29T09:29:28.460Z,101020.66
2023-01-29T09:35:54.167Z,101030.22
2023-01-29T09:38:55.675Z,101040.56
2023-01-29T09:42:13.875Z,101038.88
2023-01-29T09:45:24.507Z,101042.44
2023-01-29T09:48:30.173Z,101049.09
2023-01-29T09:51:37.404Z,101053.19
2023-01-29T09:54:59.584Z,101064.09
2023-01-29T09:58:10.514Z,101048.97
2023-01-29T10:01:46.844Z,101036.00
2023-01-29T10:05:15.369Z,101019.72
2023-01-29T10:08:29.455Z,101019.63
2023-01-29T10:11:45.880Z,101004.75
2023-01-29T10:14:53.197Z,100996.53
2023-01-29T10:18:06.325Z,100993.16
2023-01-29T10:21:29.654Z,100987.88
2023-01-29T10:24:46.192Z,100990.34
2023-01-29T10:27:53.964Z,100985.63
2023-01-29T10:31:00.186Z,100982.47
2023-01-29T10:34:27.686Z,100980.94
2023-01-29T10:37:40.360Z,100982.81
2023-01-29T10:40:50.610Z,100985.78
2023-01-29T10:44:29.192Z,100989.59
2023-01-29T10:47:50.743Z,100992.59
2023-01-29T10:51:01.603Z,100992.38
2023-01-29T10:54:09.124Z,100985.66
2023-01-29T10:57:38.987Z,100977.16
2023-01-29T11:00:41.664Z,100980.94
2023-01-29T11:03:43.453Z,100985.09
2023-01-29T11:06:45.411Z,100975.34
2023-01-29T11:09:54.598Z,100967.72
2023-01-29T11:12:57.169Z,100970.59
2023-01-29T11:15:58.619Z,100962.91
2023-01-29T11:19:01.719Z,100962.44
2023-01-29T11:22:04.383Z,100968.31
2023-01-29T11:25:18.508Z,100978.47
2023-01-29T11:28:45.500Z,100976.25
2023-01-29T11:31:47.355Z,100976.47
2023-01-29T11:35:03.381Z,100971.03
2023-01-29T11:38:16.968Z,100973.63
2023-01-29T11:41:22.174Z,100956.56
2023-01-29T11:44:28.524Z,100937.97
2023-01-29T11:47:30.679Z,100939.53
2023-01-29T11:50:33.631Z,100939.84
2023-01-29T11:53:49.480Z,100940.09
2023-01-29T11:56:51.829Z,100947.53
2023-01-29T11:59:54.950Z,100943.31
2023-01-29T12:02:59.654Z,100930.91
2023-01-29T12:06:05.943Z,100929.78
2023-01-29T12:09:16.869Z,100942.72
2023-01-29T12:12:29.837Z,100933.66
2023-01-29T12:15:31.320Z,100924.34
2023-01-29T12:18:39.908Z,100913.22
2023-01-29T12:22:20.525Z,100897.84
2023-01-29T12:25:42.700Z,100886.41
2023-01-29T12:29:22.009Z,100882.47
2023-01-29T12:32:38.982Z,100874.84
2023-01-29T12:36:31.454Z,100871.06
2023-01-29T12:39:32.922Z,100866.94
2023-01-29T12:42:36.764Z,100851.22
2023-01-29T12:45:38.999Z,100837.81
2023-01-29T12:48:43.604Z,100845.81
2023-01-29T12:51:59.870Z,100835.31
2023-01-29T12:55:11.132Z,100826.94
2023-01-29T12:58:16.759Z,100821.19
2023-01-29T13:01:28.909Z,100814.59
2023-01-29T13:04:39.254Z,100812.25
2023-01-29T13:07:47.290Z,100803.69
2023-01-29T13:10:52.639Z,100802.56
2023-01-29T13:14:06.723Z,100798.06
2023-01-29T13:17:24.301Z,100802.66
2023-01-29T13:20:30.498Z,100799.94
2023-01-29T13:23:37.416Z,100809.44
2023-01-29T13:26:40.596Z,100794.97
2023-01-29T13:29:43.809Z,100800.59
2023-01-29T13:32:54.172Z,100800.28
2023-01-29T13:35:59.763Z,100800.59
2023-01-29T13:39:07.503Z,100791.31
2023-01-29T13:42:26.418Z,100801.41
2023-01-29T13:45:27.853Z,100790.00
2023-01-29T13:48:32.461Z,100791.06
2023-01-29T13:51:36.595Z,100797.97
2023-01-29T13:54:38.034Z,100795.25
2023-01-29T13:57:39.448Z,100801.84
2023-01-29T14:00:40.780Z,100803.53
2023-01-29T14:04:04.059Z,100808.75
2023-01-29T14:07:40.059Z,100808.38
2023-01-29T14:10:43.071Z,100819.47
2023-01-29T14:13:46.701Z,100827.09
2023-01-29T14:16:49.862Z,100812.25
2023-01-29T14:19:54.661Z,100814.00
2023-01-29T14:22:59.488Z,100801.56
2023-01-29T14:26:05.136Z,100810.44
2023-01-29T14:29:14.494Z,100801.06
2023-01-29T14:32:24.864Z,100803.66
2023-01-29T14:35:30.539Z,100801.28
2023-01-29T14:38:33.400Z,100810.25
2023-01-29T14:41:36.120Z,100814.66
2023-01-29T14:45:06.511Z,100811.44
2023-01-29T14:48:11.032Z,100814.03
2023-01-29T14:51:17.821Z,100819.34
2023-01-29T14:54:28.149Z,100823.28
2023-01-29T14:57:30.612Z,100821.00
2023-01-29T15:00:37.140Z,100812.78
2023-01-29T15:03:49.697Z,100812.03
2023-01-29T15:07:14.658Z,100813.91
2023-01-29T15:10:25.085Z,100810.94
2023-01-29T15:13:37.893Z,100811.59
2023-01-29T15:17:13.532Z,100811.47
2023-01-29T15:20:34.609Z,100800.34
2023-01-29T15:23:36.016Z,100802.25
2023-01-29T15:26:37.483Z,100802.03
2023-01-29T15:29:39.847Z,100801.28
2023-01-29T15:32:41.298Z,100793.53
2023-01-29T15:35:43.303Z,100796.47
2023-01-29T15:38:44.766Z,100797.69
2023-01-29T15:41:46.380Z,100806.34
2023-01-29T15:44:48.008Z,100804.34
2023-01-29T15:47:50.213Z,100807.72
2023-01-29T15:50:54.687Z,100813.94
2023-01-29T15:54:04.282Z,100810.97
2023-01-29T15:57:06.185Z,100807.69
2023-01-29T16:00:20.192Z,100799.09
2023-01-29T16:03:28.157Z,100804.97
2023-01-29T16:06:38.898Z,100801.81
2023-01-29T16:09:40.476Z,100804.47
2023-01-29T16:12:42.612Z,100816.28
2023-01-29T16:15:56.048Z,100820.66
2023-01-29T16:19:00.785Z,100821.47
2023-01-29T16:22:05.750Z,100820.63
2023-01-29T16:25:14.077Z,100817.06
2023-01-29T16:28:17.045Z,100820.63
2023-01-29T16:31:27.111Z,100823.97
2023-01-29T16:34:43.463Z,100823.91
2023-01-29T16:37:50.643Z,100827.88
2023-01-29T16:41:28.251Z,100825.09
2023-01-29T16:44:36.179Z,100829.16
2023-01-29T16:47:41.345Z,100828.44
2023-01-29T16:50:54.292Z,100824.06
2023-01-29T16:54:11.119Z,100826.09
2023-01-29T16:57:21.449Z,100832.13
2023-01-29T17:00:28.553Z,100828.28
2023-01-29T17:03:33.214Z,100835.41
2023-01-29T17:06:35.074Z,100834.97
2023-01-29T17:09:37.661Z,100837.00
2023-01-29T17:12:39.217Z,100839.81
2023-01-29T17:15:47.067Z,100839.53
2023-01-29T17:18:48.564Z,100830.38
2023-01-29T17:21:49.953Z,100829.16
2023-01-29T17:24:51.552Z,100830.91
2023-01-29T17:27:53.331Z,100832.28
2023-01-29T17:31:05.872Z,100828.53
2023-01-29T17:34:15.853Z,100820.06
2023-01-29T17:37:17.275Z,100826.28
2023-01-29T17:40:33.195Z,100822.88
2023-01-29T17:43:34.766Z,100820.00
2023-01-29T17:46:36.550Z,100820.88
2023-01-29T17:49:37.984Z,100817.88
2023-01-29T17:52:39.393Z,100814.56
2023-01-29T17:55:40.827Z,100815.31
2023-01-29T17:58:42.629Z,100826.13
2023-01-29T18:01:45.565Z,100832.44
2023-01-29T18:04:50.826Z,100827.22
2023-01-29T18:07:54.681Z,100829.16
2023-01-29T18:10:56.489Z,100829.84
2023-01-29T18:13:58.425Z,100826.63
2023-01-29T18:17:02.679Z,100831.06
2023-01-29T18:20:13.011Z,100833.94
2023-01-29T18:23:15.431Z,100833.81
2023-01-29T18:26:17.181Z,100837.38
2023-01-29T18:29:18.731Z,100828.41
2023-01-29T18:32:20.193Z,100829.94
2023-01-29T18:35:22.010Z,100838.00
2023-01-29T18:38:23.988Z,100836.34
2023-01-29T18:41:25.596Z,100830.34
2023-01-29T18:44:29.544Z,100824.16
2023-01-29T18:47:31.105Z,100825.94
2023-01-29T18:50:33.111Z,100828.00
2023-01-29T18:53:34.529Z,100828.13
2023-01-29T18:56:35.917Z,100831.78
2023-01-29T18:59:37.336Z,100822.53
2023-01-29T19:02:38.991Z,100826.41
2023-01-29T19:05:40.482Z,100827.03
2023-01-29T19:08:42.875Z,100836.44
2023-01-29T19:11:44.195Z,100834.53
2023-01-29T19:14:45.700Z,100828.41
2023-01-29T19:17:47.151Z,100835.56
2023-01-29T19:20:49.962Z,100836.53
2023-01-29T19:23:51.492Z,100842.50
2023-01-29T19:26:53.389Z,100838.00
2023-01-29T19:29:55.876Z,100843.53
2023-01-29T19:32:57.420Z,100840.78
2023-01-29T19:35:59.597Z,100844.47
2023-01-29T19:39:00.994Z,100838.91
2023-01-29T19:42:02.439Z,100837.63
2023-01-29T19:45:05.422Z,100825.28
2023-01-29T19:48:06.904Z,100826.91
2023-01-29T19:51:10.627Z,100835.13
2023-01-29T19:54:12.070Z,100842.19
2023-01-29T19:57:13.501Z,100842.09
2023-01-29T20:00:15.425Z,100841.41
2023-01-29T20:03:17.027Z,100838.84
2023-01-29T20:06:22.775Z,100842.44
2023-01-29T20:09:24.229Z,100839.19
2023-01-29T20:12:27.389Z,100840.03
2023-01-29T20:15:28.869Z,100835.44
2023-01-29T20:18:30.558Z,100834.13
2023-01-29T20:21:31.991Z,100833.00
2023-01-29T20:24:38.900Z,100845.16
2023-01-29T20:27:40.328Z,100849.44
2023-01-29T20:30:43.795Z,100855.13
2023-01-29T20:33:45.279Z,100855.72
2023-01-29T20:36:47.684Z,100846.03
2023-01-29T20:39:49.075Z,100843.41
2023-01-29T20:42:51.165Z,100838.88
2023-01-29T20:45:57.185Z,100838.47
2023-01-29T20:48:58.646Z,100833.91
2023-01-29T20:52:00.135Z,100835.47
2023-01-29T20:55:02.423Z,100818.25
2023-01-29T20:58:06.569Z,100814.97
2023-01-29T21:01:16.160Z,100816.00
2023-01-29T21:04:17.594Z,100817.28
2023-01-29T21:07:18.976Z,100822.69
2023-01-29T21:10:23.492Z,100821.59
2023-01-29T21:13:25.018Z,100818.53
2023-01-29T21:16:26.849Z,100818.97
2023-01-29T21:19:31.564Z,100825.19
2023-01-29T21:22:33.310Z,100823.00
2023-01-29T21:25:34.979Z,100814.75
2023-01-29T21:28:36.559Z,100822.22
2023-01-29T21:31:38.059Z,100823.47
2023-01-29T21:34:39.893Z,100813.72
2023-01-29T21:37:41.584Z,100822.28
2023-01-29T21:40:42.955Z,100812.06
2023-01-29T21:43:47.737Z,100811.44
2023-01-29T21:46:49.154Z,100808.13
2023-01-29T21:49:50.594Z,100807.72
2023-01-29T21:52:54.395Z,100808.72
2023-01-29T21:56:03.238Z,100801.31
2023-01-29T21:59:04.914Z,100798.13
2023-01-29T22:02:16.874Z,100808.50
2023-01-29T22:05:20.136Z,100808.19
2023-01-29T22:08:21.938Z,100805.78
2023-01-29T22:11:23.391Z,100805.66
2023-01-29T22:14:24.831Z,100808.81
2023-01-29T22:17:26.353Z,100811.66
2023-01-29T22:20:30.550Z,100817.38
2023-01-29T22:23:32.606Z,100818.88
2023-01-29T22:26:34.748Z,100815.53
2023-01-29T22:29:39.203Z,100812.28
2023-01-29T22:32:40.653Z,100804.28
2023-01-29T22:35:42.133Z,100805.16
2023-01-29T22:38:43.539Z,100796.84
2023-01-29T22:41:45.029Z,100792.22
2023-01-29T22:44:47.912Z,100804.72
2023-01-29T22:47:49.342Z,100804.16
2023-01-29T22:51:10.481Z,100795.44
2023-01-29T22:54:12.140Z,100789.41
2023-01-29T22:57:14.999Z,100783.41
2023-01-29T23:00:17.383Z,100769.56
2023-01-29T23:03:19.103Z,100756.38
2023-01-29T23:06:23.819Z,100759.31
2023-01-29T23:09:25.375Z,100745.28
2023-01-29T23:12:26.791Z,100740.31
2023-01-29T23:15:28.200Z,100733.44
2023-01-29T23:18:29.646Z,100730.66
2023-01-29T23:21:31.069Z,100723.72
2023-01-29T23:24:32.699Z,100717.06
2023-01-29T23:27:34.133Z,100714.19
2023-01-29T23:30:35.610Z,100709.13
2023-01-29T23:33:37.693Z,100715.75
2023-01-29T23:36:39.081Z,100717.84
2023-01-29T23:39:40.492Z,100703.63
2023-01-29T23:42:41.861Z,100685.06
2023-01-29T23:45:43.268Z,100683.03
2023-01-29T23:48:44.664Z,100681.19
2023-01-29T23:51:50.822Z,100673.59
2023-01-29T23:54:52.205Z,100671.53
2023-01-29T23:57:53.843Z,100671.88
